Decoded Metar for EBFN (KOKSIJDE in BELGIUM) (IATA:N/A) | Meteo·Mobile Aviation Weather
aviador You're here:

EBFN Decoded Metar

KOKSIJDE in BELGIUM
Report Time2018-12-14 15:55:00
UTC Time2018-12-14 16:35:46
Flight Rules ifr IFR
Wind050° at 04 kt
W.Decomp.*RWY 11: 2.0 kt HW 3.5 kt LCW
W.Rank050° ranks 24
Current wind is below 050° avg. (7.2)
Visibility3800 m
Phenomena:Mist
Clouds:Overcast 036 Hf
Expected CloudBase > 400 ft AGL from Temp-Dew spread
Ceiling3,600 ft
Temp00°C (ISA -15)
Dew Point-1°C (93% RH)
AAT-3.6°C
QNH1025 hPa
Density Alt-2,126 ft
Elevation30 ft
Report Wrong Elevation
Raw Report
METAR EBFN 141555Z AUTO 05004KT 3800 BR OVC036/// 00/M01 Q1025 GRN=

Extra information for EBFN:More info

Metar Taf Metar & Taf Last 4 Metars F.Rules Stats Wind Profile Meteogram Temp Stats Airport Information Weather charts Add Link Nearby VenuesMetar ALERT Operation Metar Decoded Social comments